Flight Track Log - Related Links

Times and Time Zones

All times are in EDT time to prevent confusion due to time zone crossing. See the RPA3228 flight status page for this flight to view local times or setup timezone preferences in your user account.

Time Position Orientation Groundspeed Altitude Reporting Facility
EDT Latitude Longitude Course Direction KTS MPH feet Rate Location/Type
Thu 10:23:08 AM 38.8489 -76.9856 38° Northeast 176 203 1,400  Level Washington Center
Thu 10:24:09 AM 38.8808 -76.9331 52° Northeast 244 281 4,300 3,074 Climbing Washington Center
Thu 10:25:00 AM 39.0121 -76.5757 57° Northeast  Level FlightAware
Thu 10:25:09 AM 38.9214 -76.8589 55° Northeast 251 289 7,600  Level Washington Center
Thu 10:26:00 AM 39.0560 -76.4599 63° Northeast  Level FlightAware
Thu 10:26:10 AM 38.9678 -76.7850 51° Northeast 263 303 10,600  Level Washington Center
Thu 10:27:00 AM 39.1039 -76.3465 61° Northeast  Level FlightAware
Thu 10:27:07 AM 39.0269 -76.7139 43° Northeast 274 315 12,700  Level Washington Center
Thu 10:28:00 AM 39.1366 -76.2301 38° Northeast  Level FlightAware
Thu 10:28:08 AM 39.0614 -76.5914 70° East 318 366 14,400  Level Washington Center
Thu 10:29:09 AM 39.0853 -76.4528 77° East 351 404 15,800 1,785 Climbing Washington Center
Thu 10:30:09 AM 39.1133 -76.2978 77° East 402 463 18,000 2,319 Climbing Washington Center
Thu 10:31:08 AM 39.1475 -76.1375 75° East 429 494 20,400 2,269 Climbing Washington Center
Thu 10:32:08 AM 39.1733 -75.9825 78° East 447 514 22,500 1,835 Climbing Washington Center
Thu 10:33:09 AM 39.2258 -75.8381 65° Northeast 447 514 24,100 1,426 Climbing Washington Center
Thu 10:34:10 AM 39.3156 -75.7231 45° Northeast 437 503 25,400 1,311 Climbing Washington Center
Thu 10:35:08 AM 39.4072 -75.6050 45° Northeast 444 511 26,700 1,220 Climbing Washington Center
Thu 10:36:08 AM 39.5008 -75.4839 45° Northeast 456 525 27,800 984 Climbing Washington Center
Thu 10:37:10 AM 39.5944 -75.3600 46° Northeast 466 536 28,700 934 Climbing Washington Center
Thu 10:38:10 AM 39.6778 -75.2492 46° Northeast 466 536 29,700 1,327 Climbing Washington Center
Thu 10:38:54 AM 39.7556 -75.1372 48° Northeast 481 554 31,000 750 Climbing New Center
Thu 10:39:54 AM 39.8369 -75.0181 48° Northeast 475 547 31,000  Level New Center
Thu 10:40:55 AM 39.9289 -74.8908 47° Northeast 475 547 31,000  Level New Center
Thu 10:41:52 AM 40.0272 -74.7611 45° Northeast 480 552 31,000  Level New Center
Thu 10:42:53 AM 40.1150 -74.6278 49° Northeast 485 558 31,000 -50 Level New Center
Thu 10:43:53 AM 40.2342 -74.5528 26° Northeast 465 535 30,900  Descending New Center
Thu 10:44:53 AM 40.3669 -74.5111 13° North 447 514 31,000 49 Climbing New Center
Thu 10:45:55 AM 40.4931 -74.4744 12° North 442 509 31,000  Level New Center
Thu 10:47:44 AM 40.7158 -74.4089 13° North 476 548 31,000  Level Boston Center
Thu 10:48:44 AM 40.8436 -74.3769 11° North 476 548 31,000  Level Boston Center
Thu 10:49:44 AM 40.9650 -74.3394 13° North 463 533 31,000  Level Boston Center
Thu 10:50:44 AM 41.0928 -74.3047 12° North 458 527 31,000  Level Boston Center
Thu 10:51:44 AM 41.2186 -74.2669 13° North 458 527 31,000  Level Boston Center
Thu 10:52:44 AM 41.3567 -74.2211 14° North 453 521 31,000  Level Boston Center
Thu 10:53:44 AM 41.4886 -74.1831 12° North 458 527 31,000  Level Boston Center
Thu 10:54:44 AM 41.6081 -74.1475 13° North 474 545 31,000  Level Boston Center
Thu 10:55:44 AM 41.7336 -74.1119 12° North 474 545 31,000  Level Boston Center
Thu 10:56:44 AM 41.8633 -74.0764 12° North 469 540 31,000  Level Boston Center
Thu 10:57:44 AM 41.9931 -74.0378 12° North 469 540 31,000  Level Boston Center
Thu 10:58:44 AM 42.1228 -73.9992 12° North 469 540 31,000  Level Boston Center
Thu 10:59:44 AM 42.2506 -73.9519 15° North 469 540 31,000  Level Boston Center
Thu 11:00:44 AM 42.3742 -73.9069 15° North 463 533 31,000 -350 Level Boston Center
Thu 11:01:44 AM 42.5000 -73.8622 15° North 463 533 30,300 -900 Descending Boston Center
Thu 11:02:44 AM 42.6233 -73.8200 14° North 463 533 29,200 -650 Descending Boston Center
Thu 11:03:44 AM 42.7489 -73.7775 14° North 458 527 29,000 -100 Descending Boston Center
Thu 11:04:44 AM 42.8786 -73.7292 15° North 458 527 29,000  Level Boston Center
Thu 11:05:44 AM 43.0064 -73.6836 15° North 458 527 29,000 -300 Level Boston Center
Thu 11:06:44 AM 43.1508 -73.6297 15° North 473 544 28,400 -1,300 Descending Boston Center
Thu 11:07:44 AM 43.2761 -73.5864 14° North 473 544 26,400 -2,000 Descending Boston Center
Thu 11:08:44 AM 43.3975 -73.5431 15° North 462 532 24,400 -1,950 Descending Boston Center
Thu 11:09:44 AM 43.5147 -73.5022 14° North 449 517 22,500 -2,200 Descending Boston Center
Thu 11:10:44 AM 43.6297 -73.4611 15° North 429 494 20,000 -2,650 Descending Boston Center
Thu 11:11:44 AM 43.7361 -73.4228 15° North 404 465 17,200 -2,650 Descending Boston Center
Thu 11:12:44 AM 43.8367 -73.3869 14° North 386 444 14,700 -2,500 Descending Boston Center
Thu 11:13:44 AM 43.9347 -73.3511 15° North 366 421 12,200 -2,000 Descending Boston Center
Thu 11:14:44 AM 44.0267 -73.3122 17° North 355 409 10,700 -1,300 Descending Boston Center
Thu 11:15:44 AM 44.1003 -73.2467 33° Northeast 325 374 9,600 -1,300 Descending Boston Center
Thu 11:16:44 AM 44.1672 -73.1811 35° Northeast 299 344 8,100 -1,350 Descending Boston Center
Thu 11:17:44 AM 44.2217 -73.1267 36° Northeast 262 302 6,900 -1,250 Descending Boston Center
Thu 11:18:44 AM 44.2761 -73.0839 29° Northeast 229 264 5,600 -1,200 Descending Boston Center
Thu 11:19:44 AM 44.3222 -73.0581 22° Northeast 200 230 4,500 -1,050 Descending Boston Center
Thu 11:20:44 AM 44.3722 -73.0442 11° North 182 209 3,500 -1,250 Descending Boston Center
Thu 11:21:44 AM 44.4139 -73.0650 340° North 167 192 2,000 -1,500 Descending Boston Center

Login

Don't have an account? Register now (free) for customized features, flight alerts, and more!